Asbury, Illinois
Current Conditions -  °F | °C
As of 2:55 PM on Tuesday 21 Oct 2014 (Local Time) from KCUL Reporting Station
Scattered Clouds Scattered Clouds  
Wind Chill: 67°   Ceiling: Unl
Heat Index: 67°   Visibility: 10mi
Dew Point: 47°   Wind: 9mph
Humidity: 47%   Direction: 320°NW
Pressure: 30.08"   Gusts: 16mph
Location:  37.8866°N, 88.266°W
Report Text: KCUL 211955Z AUTO 32008G14KT 10SM SCT047 20/08 A3008 RMK AO2 T01960081
Loading
Personal Weather Stations






























Interactive Weather Map New forecast layout! Learn more

10-Day Weather Forecast

Advertisements
Track Severe Weather on mobile